createdAt,value
2018-12-31T00:00:18.949Z,12.00
2018-12-31T00:01:19.179Z,12.00
2018-12-31T00:02:18.933Z,12.00
2018-12-31T00:03:19.311Z,12.00
2018-12-31T00:04:18.908Z,12.00
2018-12-31T00:05:18.899Z,12.00
2018-12-31T00:06:18.887Z,12.00
2018-12-31T00:07:19.794Z,12.00
2018-12-31T00:08:18.871Z,12.00
2018-12-31T00:09:18.857Z,12.00
2018-12-31T00:10:19.331Z,12.00
2018-12-31T00:11:18.836Z,12.00
2018-12-31T00:12:18.827Z,12.00
2018-12-31T00:13:18.976Z,12.00
2018-12-31T00:14:18.807Z,12.00
2018-12-31T00:15:18.795Z,12.00
2018-12-31T00:16:18.785Z,12.00
2018-12-31T00:17:19.051Z,12.00
2018-12-31T00:18:18.767Z,12.00
2018-12-31T00:19:18.873Z,12.00
2018-12-31T00:20:18.743Z,12.00
2018-12-31T00:21:18.739Z,12.00
2018-12-31T00:22:18.723Z,12.00
2018-12-31T00:23:18.712Z,12.00
2018-12-31T00:24:19.799Z,12.00
2018-12-31T00:25:18.763Z,12.00
2018-12-31T00:26:18.680Z,12.00
2018-12-31T00:27:18.671Z,12.00
2018-12-31T00:28:18.661Z,12.00
2018-12-31T00:29:18.649Z,12.00
2018-12-31T00:30:18.642Z,12.00
2018-12-31T00:31:18.958Z,12.00
2018-12-31T00:32:18.619Z,12.00
2018-12-31T00:33:18.640Z,12.00
2018-12-31T00:34:18.598Z,12.00
2018-12-31T00:35:18.590Z,12.00
2018-12-31T00:36:18.577Z,12.00
2018-12-31T00:37:19.003Z,12.00
2018-12-31T00:38:18.557Z,12.00
2018-12-31T00:39:18.546Z,12.00
2018-12-31T00:40:18.537Z,12.00
2018-12-31T00:41:18.524Z,12.00
2018-12-31T00:42:18.516Z,12.00
2018-12-31T00:43:18.572Z,12.00
2018-12-31T00:44:18.998Z,12.00
2018-12-31T00:45:18.491Z,12.00
2018-12-31T00:46:18.476Z,12.00
2018-12-31T00:47:18.463Z,12.00
2018-12-31T00:48:18.453Z,12.00
2018-12-31T00:49:18.547Z,12.00
2018-12-31T00:50:18.432Z,12.00
2018-12-31T00:51:18.424Z,12.00
2018-12-31T00:52:18.413Z,12.00
2018-12-31T00:53:18.413Z,12.00
2018-12-31T00:54:18.394Z,12.00
2018-12-31T00:55:18.453Z,12.00
2018-12-31T00:56:18.370Z,12.00
2018-12-31T00:57:18.798Z,12.00
2018-12-31T00:58:18.349Z,12.00
2018-12-31T00:59:18.341Z,12.00
2018-12-31T01:00:18.391Z,12.00
2018-12-31T01:01:18.391Z,12.00
2018-12-31T01:02:18.312Z,12.00
2018-12-31T01:03:18.297Z,12.00
2018-12-31T01:04:18.615Z,12.00
2018-12-31T01:05:18.278Z,12.00
2018-12-31T01:06:18.267Z,12.00
2018-12-31T01:07:18.597Z,12.00
2018-12-31T01:08:18.286Z,12.00
2018-12-31T01:09:18.237Z,12.00
2018-12-31T01:10:18.225Z,12.00
2018-12-31T01:11:18.632Z,12.00
2018-12-31T01:12:18.207Z,12.00
2018-12-31T01:13:18.270Z,12.00
2018-12-31T01:14:18.184Z,12.00
2018-12-31T01:15:18.176Z,12.00
2018-12-31T01:16:18.164Z,12.00
2018-12-31T01:17:18.154Z,12.00
2018-12-31T01:18:19.479Z,12.00
2018-12-31T01:19:18.203Z,12.00
2018-12-31T01:20:18.123Z,12.00
2018-12-31T01:21:18.115Z,12.00
2018-12-31T01:22:18.182Z,12.00
2018-12-31T01:23:18.835Z,12.00
2018-12-31T01:24:18.082Z,12.00
2018-12-31T01:25:18.505Z,12.00
2018-12-31T01:26:18.060Z,12.00
2018-12-31T01:27:18.050Z,12.00
2018-12-31T01:28:18.044Z,12.00
2018-12-31T01:29:18.031Z,12.00
2018-12-31T01:30:18.025Z,12.00
2018-12-31T01:31:18.078Z,12.00
2018-12-31T01:32:18.276Z,12.00
2018-12-31T01:33:17.988Z,12.00
2018-12-31T01:34:17.979Z,12.00
2018-12-31T01:35:17.972Z,12.00
2018-12-31T01:36:17.969Z,12.00
2018-12-31T01:37:18.017Z,12.00
2018-12-31T01:38:17.936Z,12.00
2018-12-31T01:39:18.209Z,12.00
2018-12-31T01:40:17.916Z,12.00
2018-12-31T01:41:17.911Z,12.00
2018-12-31T01:42:17.905Z,12.00
2018-12-31T01:43:17.986Z,12.00
2018-12-31T01:44:17.874Z,12.00
2018-12-31T01:45:17.864Z,12.00
2018-12-31T01:46:18.142Z,12.00
2018-12-31T01:47:17.850Z,12.00
2018-12-31T01:48:18.899Z,12.00
2018-12-31T01:49:17.823Z,12.00
2018-12-31T01:50:17.825Z,12.00
2018-12-31T01:51:17.805Z,12.00
2018-12-31T01:52:17.792Z,12.00
2018-12-31T01:53:18.142Z,12.00
2018-12-31T01:54:17.845Z,12.00
2018-12-31T01:55:17.763Z,12.00
2018-12-31T01:56:17.751Z,12.00
2018-12-31T01:57:17.741Z,12.00
2018-12-31T01:58:17.732Z,12.00
2018-12-31T01:59:17.733Z,12.00
2018-12-31T02:00:18.083Z,12.00
2018-12-31T02:01:17.700Z,12.00
2018-12-31T02:02:17.689Z,12.00
2018-12-31T02:03:17.685Z,12.00
2018-12-31T02:04:17.669Z,12.00
2018-12-31T02:05:17.662Z,12.00
2018-12-31T02:06:17.728Z,12.00
2018-12-31T02:07:17.916Z,12.00
2018-12-31T02:08:17.631Z,12.00
2018-12-31T02:09:17.617Z,12.00
2018-12-31T02:10:17.607Z,12.00
2018-12-31T02:11:17.597Z,12.00
2018-12-31T02:12:17.654Z,12.00
2018-12-31T02:13:17.664Z,12.00
2018-12-31T02:14:18.006Z,12.00
2018-12-31T02:15:17.557Z,12.00
2018-12-31T02:16:17.545Z,12.00
2018-12-31T02:17:17.538Z,12.00
2018-12-31T02:18:17.603Z,12.00
2018-12-31T02:19:17.518Z,12.00
2018-12-31T02:20:17.507Z,12.00
2018-12-31T02:21:17.494Z,12.00
2018-12-31T02:22:17.483Z,12.00
2018-12-31T02:23:17.474Z,12.00
2018-12-31T02:24:17.532Z,12.00
2018-12-31T02:25:17.453Z,12.00
2018-12-31T02:26:17.443Z,12.00
2018-12-31T02:27:17.435Z,12.00
2018-12-31T02:28:17.421Z,12.00
2018-12-31T02:29:17.409Z,12.00
2018-12-31T02:30:17.473Z,12.00
2018-12-31T02:31:17.391Z,12.00
2018-12-31T02:32:17.381Z,12.00
2018-12-31T02:33:17.819Z,12.00
2018-12-31T02:34:17.360Z,12.00
2018-12-31T02:35:17.348Z,12.00
2018-12-31T02:36:17.440Z,12.00
2018-12-31T02:37:17.329Z,12.00
2018-12-31T02:38:17.318Z,12.00
2018-12-31T02:39:17.307Z,12.00
2018-12-31T02:40:17.297Z,12.00
2018-12-31T02:41:17.285Z,12.00
2018-12-31T02:42:17.349Z,12.00
2018-12-31T02:43:17.272Z,12.00
2018-12-31T02:44:17.320Z,12.00
2018-12-31T02:45:17.248Z,20.00
2018-12-31T02:46:17.234Z,12.00
2018-12-31T02:47:17.227Z,12.00
2018-12-31T02:48:17.285Z,12.00
2018-12-31T02:49:17.205Z,12.00
2018-12-31T02:50:17.200Z,12.00
2018-12-31T02:51:17.469Z,12.00
2018-12-31T02:52:17.180Z,12.00
2018-12-31T02:53:17.163Z,12.00
2018-12-31T02:54:17.240Z,12.00
2018-12-31T02:55:17.143Z,12.00
2018-12-31T02:56:17.132Z,12.00
2018-12-31T02:57:17.123Z,12.00
2018-12-31T02:58:17.418Z,12.00
2018-12-31T02:59:17.101Z,12.00
2018-12-31T03:01:33.319Z,12.00
2018-12-31T03:02:33.237Z,12.00
2018-12-31T03:03:33.226Z,12.00
2018-12-31T03:04:33.616Z,12.00
2018-12-31T03:05:33.206Z,12.00
2018-12-31T03:06:33.193Z,12.00
2018-12-31T03:07:33.396Z,12.00
2018-12-31T03:08:33.179Z,12.00
2018-12-31T03:09:33.161Z,12.00
2018-12-31T03:10:33.150Z,12.00
2018-12-31T03:11:33.141Z,12.00
2018-12-31T03:12:33.133Z,12.00
2018-12-31T03:13:34.294Z,12.00
2018-12-31T03:14:33.117Z,12.00
2018-12-31T03:15:33.998Z,12.00
2018-12-31T03:16:33.396Z,12.00
2018-12-31T03:17:33.081Z,12.00
2018-12-31T03:18:33.083Z,12.00
2018-12-31T03:19:33.339Z,12.00
2018-12-31T03:20:33.050Z,12.00
2018-12-31T03:21:33.036Z,12.00
2018-12-31T03:22:34.072Z,12.00
2018-12-31T03:23:33.331Z,12.00
2018-12-31T03:24:33.005Z,12.00
2018-12-31T03:25:33.121Z,12.00
2018-12-31T03:26:32.982Z,12.00
2018-12-31T03:27:33.500Z,12.00
2018-12-31T03:28:33.023Z,12.00
2018-12-31T03:29:32.952Z,12.00
2018-12-31T03:30:33.328Z,12.00
2018-12-31T03:31:33.859Z,12.00
2018-12-31T03:32:32.933Z,12.00
2018-12-31T03:33:32.910Z,12.00
2018-12-31T03:34:32.922Z,12.00
2018-12-31T03:35:32.893Z,12.00
2018-12-31T03:36:32.878Z,12.00
2018-12-31T03:37:33.189Z,12.00
2018-12-31T03:38:32.863Z,12.00
2018-12-31T03:39:32.847Z,12.00
2018-12-31T03:40:32.839Z,12.00
2018-12-31T03:41:32.825Z,12.00
2018-12-31T03:42:32.815Z,12.00
2018-12-31T03:43:32.847Z,12.00
2018-12-31T03:44:33.076Z,12.00
2018-12-31T03:45:32.783Z,12.00
2018-12-31T03:46:32.775Z,12.00
2018-12-31T03:47:32.762Z,12.00
2018-12-31T03:48:32.757Z,12.00
2018-12-31T03:49:32.824Z,12.00
2018-12-31T03:50:32.746Z,12.00
2018-12-31T03:51:33.032Z,12.00
2018-12-31T03:52:32.712Z,12.00
2018-12-31T03:53:32.713Z,12.00
2018-12-31T03:54:32.689Z,12.00
2018-12-31T03:55:32.737Z,12.00
2018-12-31T03:56:32.669Z,12.00
2018-12-31T03:57:32.657Z,12.00
2018-12-31T03:58:32.947Z,12.00
2018-12-31T03:59:32.642Z,12.00
2018-12-31T04:00:32.626Z,20.00
2018-12-31T04:01:32.655Z,20.00
2018-12-31T04:02:32.617Z,20.00
2018-12-31T04:03:32.594Z,20.00
2018-12-31T04:04:32.585Z,20.00
2018-12-31T04:05:32.859Z,20.00
2018-12-31T04:06:32.565Z,20.00
2018-12-31T04:07:33.494Z,20.00
2018-12-31T04:08:32.572Z,20.00
2018-12-31T04:09:32.531Z,20.00
2018-12-31T04:10:32.526Z,20.00
2018-12-31T04:11:32.511Z,20.00
2018-12-31T04:12:32.781Z,20.00
2018-12-31T04:13:32.546Z,20.00
2018-12-31T04:14:32.479Z,20.00
2018-12-31T04:15:32.470Z,20.00
2018-12-31T04:16:32.466Z,20.00
2018-12-31T04:17:32.447Z,20.00
2018-12-31T04:18:32.437Z,20.00
2018-12-31T04:19:32.776Z,20.00
2018-12-31T04:20:32.417Z,20.00
2018-12-31T04:21:32.404Z,20.00
2018-12-31T04:22:32.394Z,20.00
2018-12-31T04:23:32.397Z,20.00
2018-12-31T04:24:32.378Z,20.00
2018-12-31T04:25:32.579Z,20.00
2018-12-31T04:26:32.634Z,20.00
2018-12-31T04:27:32.343Z,20.00
2018-12-31T04:28:32.332Z,20.00
2018-12-31T04:29:32.322Z,20.00
2018-12-31T04:30:32.312Z,20.00
2018-12-31T04:31:32.339Z,20.00
2018-12-31T04:32:32.289Z,20.00
2018-12-31T04:33:32.562Z,20.00
2018-12-31T04:34:32.271Z,20.00
2018-12-31T04:35:32.261Z,20.00
2018-12-31T04:36:32.249Z,20.00
2018-12-31T04:37:32.283Z,20.00
2018-12-31T04:38:32.226Z,20.00
2018-12-31T04:39:32.219Z,20.00
2018-12-31T04:40:32.484Z,20.00
2018-12-31T04:41:32.194Z,20.00
2018-12-31T04:42:32.183Z,20.00
2018-12-31T04:43:32.369Z,20.00
2018-12-31T04:44:32.161Z,20.00
2018-12-31T04:45:32.153Z,20.00
2018-12-31T04:46:32.143Z,20.00
2018-12-31T04:47:32.410Z,20.00
2018-12-31T04:48:32.119Z,20.00
2018-12-31T04:49:32.152Z,20.00
2018-12-31T04:50:32.099Z,20.00
2018-12-31T04:51:32.087Z,20.00
2018-12-31T04:52:32.077Z,20.00
2018-12-31T04:53:32.071Z,20.00
2018-12-31T04:54:32.361Z,20.00
2018-12-31T04:55:32.088Z,20.00
2018-12-31T04:56:32.036Z,20.00
2018-12-31T04:57:32.026Z,20.00
2018-12-31T04:58:32.013Z,20.00
2018-12-31T04:59:32.002Z,20.00
2018-12-31T05:00:31.994Z,20.00
2018-12-31T05:01:32.041Z,20.00
2018-12-31T05:02:31.972Z,20.00
2018-12-31T05:03:31.963Z,20.00
2018-12-31T05:04:31.949Z,20.00
2018-12-31T05:05:31.940Z,20.00
2018-12-31T05:06:32.483Z,20.00
2018-12-31T05:07:32.262Z,20.00
2018-12-31T05:08:31.907Z,20.00
2018-12-31T05:09:31.897Z,24.00
2018-12-31T05:10:31.898Z,20.00
2018-12-31T05:11:31.881Z,20.00
2018-12-31T05:12:31.867Z,20.00
2018-12-31T05:13:31.894Z,20.00
2018-12-31T05:14:32.123Z,20.00
2018-12-31T05:15:31.837Z,20.00
2018-12-31T05:16:31.825Z,20.00
2018-12-31T05:17:31.814Z,20.00
2018-12-31T05:18:31.803Z,20.00
2018-12-31T05:19:32.670Z,20.00
2018-12-31T05:20:31.786Z,20.00
2018-12-31T05:21:31.771Z,20.00
2018-12-31T05:22:31.762Z,20.00
2018-12-31T05:23:31.749Z,20.00
2018-12-31T05:24:31.740Z,20.00
2018-12-31T05:25:31.770Z,20.00
2018-12-31T05:26:31.996Z,20.00
2018-12-31T05:27:31.719Z,20.00
2018-12-31T05:28:31.697Z,20.00
2018-12-31T05:29:31.687Z,20.00
2018-12-31T05:30:31.676Z,20.00
2018-12-31T05:31:31.709Z,20.00
2018-12-31T05:32:31.660Z,24.00
2018-12-31T05:33:32.444Z,20.00
2018-12-31T05:34:31.637Z,20.00
2018-12-31T05:35:31.626Z,20.00
2018-12-31T05:36:31.614Z,20.00
2018-12-31T05:37:31.656Z,20.00
2018-12-31T05:38:31.592Z,20.00
2018-12-31T05:39:31.582Z,20.00
2018-12-31T05:40:31.576Z,20.00
2018-12-31T05:41:31.567Z,20.00
2018-12-31T05:42:31.551Z,20.00
2018-12-31T05:43:31.592Z,20.00
2018-12-31T05:44:31.532Z,20.00
2018-12-31T05:45:31.799Z,20.00
2018-12-31T05:46:31.512Z,20.00
2018-12-31T05:47:31.499Z,20.00
2018-12-31T05:48:31.489Z,20.00
2018-12-31T05:49:31.518Z,20.00
2018-12-31T05:50:31.475Z,20.00
2018-12-31T05:51:31.459Z,20.00
2018-12-31T05:52:31.730Z,20.00
2018-12-31T05:53:31.436Z,20.00
2018-12-31T05:54:31.427Z,20.00
2018-12-31T05:55:31.715Z,20.00
2018-12-31T05:56:31.405Z,20.00
2018-12-31T05:57:31.396Z,20.00
2018-12-31T05:58:31.384Z,20.00
2018-12-31T05:59:31.653Z,20.00
2018-12-31T06:00:31.363Z,20.00
2018-12-31T06:01:31.389Z,20.00
2018-12-31T06:02:31.343Z,20.00
2018-12-31T06:03:31.330Z,20.00
2018-12-31T06:04:31.321Z,20.00
2018-12-31T06:05:31.310Z,20.00
2018-12-31T06:06:31.591Z,20.00
2018-12-31T06:07:31.344Z,20.00
2018-12-31T06:08:31.278Z,20.00
2018-12-31T06:09:31.268Z,20.00
2018-12-31T06:10:31.268Z,20.00
2018-12-31T06:11:31.255Z,20.00
2018-12-31T06:12:31.236Z,20.00
2018-12-31T06:13:31.556Z,20.00
2018-12-31T06:14:31.220Z,20.00
2018-12-31T06:15:31.206Z,20.00
2018-12-31T06:16:31.196Z,20.00
2018-12-31T06:17:31.184Z,20.00
2018-12-31T06:18:31.173Z,20.00
2018-12-31T06:19:31.202Z,20.00
2018-12-31T06:20:31.435Z,20.00
2018-12-31T06:21:31.142Z,20.00
2018-12-31T06:22:31.133Z,20.00
2018-12-31T06:23:31.125Z,20.00
2018-12-31T06:24:31.110Z,20.00
2018-12-31T06:25:31.141Z,20.00
2018-12-31T06:26:31.092Z,20.00
2018-12-31T06:27:31.378Z,20.00
2018-12-31T06:28:31.069Z,20.00
2018-12-31T06:29:31.058Z,20.00
2018-12-31T06:30:31.048Z,20.00
2018-12-31T06:31:31.267Z,20.00
2018-12-31T06:32:31.027Z,20.00
2018-12-31T06:33:31.016Z,20.00
2018-12-31T06:34:31.495Z,20.00
2018-12-31T06:35:30.995Z,20.00
2018-12-31T06:36:30.984Z,20.00
2018-12-31T06:37:31.013Z,20.00
2018-12-31T06:38:30.965Z,20.00
2018-12-31T06:39:30.953Z,20.00
2018-12-31T06:40:30.946Z,20.00
2018-12-31T06:41:30.932Z,20.00
2018-12-31T06:42:30.922Z,20.00
2018-12-31T06:43:30.969Z,20.00
2018-12-31T06:44:30.903Z,20.00
2018-12-31T06:45:30.890Z,20.00
2018-12-31T06:46:30.879Z,20.00
2018-12-31T06:47:31.298Z,20.00
2018-12-31T06:48:30.858Z,20.00
2018-12-31T06:49:31.178Z,20.00
2018-12-31T06:50:30.837Z,20.00
2018-12-31T06:51:30.827Z,20.00
2018-12-31T06:52:30.816Z,20.00
2018-12-31T06:53:30.805Z,20.00
2018-12-31T06:54:31.079Z,20.00
2018-12-31T06:55:30.827Z,20.00
2018-12-31T06:56:30.774Z,20.00
2018-12-31T06:57:30.764Z,20.00
2018-12-31T06:58:30.754Z,20.00
2018-12-31T06:59:30.744Z,20.00
2018-12-31T07:00:30.733Z,20.00
2018-12-31T07:01:30.765Z,20.00
2018-12-31T07:02:30.710Z,24.00
2018-12-31T07:03:30.702Z,24.00
2018-12-31T07:04:30.690Z,24.00
2018-12-31T07:05:30.680Z,24.00
2018-12-31T07:06:30.670Z,24.00
2018-12-31T07:07:31.165Z,20.00
2018-12-31T07:08:30.649Z,20.00
2018-12-31T07:09:30.637Z,24.00
2018-12-31T07:10:30.628Z,24.00
2018-12-31T07:11:30.616Z,24.00
2018-12-31T07:12:30.606Z,24.00
2018-12-31T07:13:30.635Z,28.00
2018-12-31T07:14:30.942Z,24.00
2018-12-31T07:15:30.572Z,28.00
2018-12-31T07:16:30.563Z,28.00
2018-12-31T07:17:30.554Z,28.00
2018-12-31T07:18:30.540Z,28.00
2018-12-31T07:19:30.578Z,32.00
2018-12-31T07:20:30.518Z,32.00
2018-12-31T07:21:30.965Z,32.00
2018-12-31T07:22:30.498Z,28.00
2018-12-31T07:23:30.489Z,32.00
2018-12-31T07:24:30.476Z,32.00
2018-12-31T07:25:30.536Z,24.00
2018-12-31T07:26:30.455Z,24.00
2018-12-31T07:27:30.445Z,24.00
2018-12-31T07:28:30.781Z,28.00
2018-12-31T07:29:30.422Z,28.00
2018-12-31T07:30:30.419Z,32.00
2018-12-31T07:31:30.442Z,32.00
2018-12-31T07:32:30.391Z,24.00
2018-12-31T07:33:30.378Z,24.00
2018-12-31T07:34:30.367Z,24.00
2018-12-31T07:35:30.661Z,32.00
2018-12-31T07:36:30.346Z,44.00
2018-12-31T07:37:32.212Z,52.00
2018-12-31T07:38:30.323Z,60.00
2018-12-31T07:39:30.315Z,64.00
2018-12-31T07:40:30.307Z,64.00
2018-12-31T07:41:30.295Z,72.00
2018-12-31T07:42:30.582Z,68.00
2018-12-31T07:43:30.946Z,64.00
2018-12-31T07:44:30.961Z,60.00
2018-12-31T07:45:30.251Z,60.00
2018-12-31T07:46:30.243Z,64.00
2018-12-31T07:47:30.235Z,72.00
2018-12-31T07:48:30.218Z,72.00
2018-12-31T07:49:30.674Z,76.00
2018-12-31T07:50:30.303Z,80.00
2018-12-31T07:51:30.191Z,84.00
2018-12-31T07:52:30.177Z,88.00
2018-12-31T07:53:30.166Z,104.00
2018-12-31T07:54:30.155Z,108.00
2018-12-31T07:55:30.355Z,136.00
2018-12-31T07:56:30.455Z,132.00
2018-12-31T07:57:30.123Z,136.00
2018-12-31T07:58:30.113Z,152.00
2018-12-31T07:59:30.104Z,160.00
2018-12-31T08:00:30.092Z,204.00
2018-12-31T08:01:30.219Z,216.00
2018-12-31T08:02:30.070Z,264.00
2018-12-31T08:03:30.472Z,264.00
2018-12-31T08:04:30.051Z,272.00
2018-12-31T08:05:30.041Z,304.00
2018-12-31T08:06:30.031Z,308.00
2018-12-31T08:07:30.137Z,376.00
2018-12-31T08:08:30.016Z,388.00
2018-12-31T08:09:29.998Z,376.00
2018-12-31T08:10:33.402Z,400.00
2018-12-31T08:11:30.088Z,376.00
2018-12-31T08:12:29.968Z,344.00
2018-12-31T08:13:30.240Z,332.00
2018-12-31T08:14:29.951Z,356.00
2018-12-31T08:15:29.935Z,388.00
2018-12-31T08:16:29.923Z,444.00
2018-12-31T08:17:30.922Z,512.00
2018-12-31T08:18:29.902Z,528.00
2018-12-31T08:19:30.258Z,548.00
2018-12-31T08:20:29.892Z,560.00
2018-12-31T08:21:29.913Z,576.00
2018-12-31T08:22:29.867Z,712.00
2018-12-31T08:23:30.930Z,740.00
2018-12-31T08:24:30.327Z,764.00
2018-12-31T08:25:29.994Z,828.00
2018-12-31T08:26:30.044Z,820.00
2018-12-31T08:27:29.810Z,756.00
2018-12-31T08:28:29.795Z,720.00
2018-12-31T08:29:29.802Z,740.00
2018-12-31T08:30:30.420Z,728.00
2018-12-31T08:31:30.422Z,724.00
2018-12-31T08:32:29.756Z,752.00
2018-12-31T08:33:29.839Z,716.00
2018-12-31T08:34:30.051Z,636.00
2018-12-31T08:35:29.722Z,648.00
2018-12-31T08:36:29.708Z,800.00
2018-12-31T08:37:31.671Z,928.00
2018-12-31T08:38:29.962Z,792.00
2018-12-31T08:39:29.928Z,720.00
2018-12-31T08:40:29.758Z,788.00
2018-12-31T08:41:29.756Z,888.00
2018-12-31T08:42:29.711Z,772.00
2018-12-31T08:43:30.062Z,696.00
2018-12-31T08:44:29.642Z,676.00
2018-12-31T08:45:29.645Z,628.00
2018-12-31T08:46:29.601Z,640.00
2018-12-31T08:47:29.595Z,668.00
2018-12-31T08:48:29.614Z,680.00
2018-12-31T08:49:30.136Z,648.00
2018-12-31T08:50:29.557Z,652.00
2018-12-31T08:51:29.631Z,716.00
2018-12-31T08:52:29.761Z,780.00
2018-12-31T08:53:29.807Z,804.00
2018-12-31T08:54:29.628Z,756.00
2018-12-31T08:55:30.085Z,744.00
2018-12-31T08:56:29.912Z,760.00
2018-12-31T08:57:29.737Z,748.00
2018-12-31T08:58:29.503Z,652.00
2018-12-31T08:59:29.647Z,604.00
2018-12-31T09:00:29.716Z,724.00
2018-12-31T09:01:29.778Z,768.00
2018-12-31T09:02:29.588Z,720.00
2018-12-31T09:03:29.929Z,740.00
2018-12-31T09:04:29.410Z,676.00
2018-12-31T09:05:29.398Z,712.00
2018-12-31T09:06:29.389Z,716.00
2018-12-31T09:07:29.448Z,696.00
2018-12-31T09:08:29.362Z,728.00
2018-12-31T09:09:29.352Z,804.00
2018-12-31T09:10:29.763Z,800.00
2018-12-31T09:11:29.330Z,780.00
2018-12-31T09:12:29.318Z,760.00
2018-12-31T09:13:29.403Z,728.00
2018-12-31T09:14:29.431Z,676.00
2018-12-31T09:15:29.291Z,636.00
2018-12-31T09:16:29.324Z,568.00
2018-12-31T09:17:30.269Z,548.00
2018-12-31T09:18:29.393Z,640.00
2018-12-31T09:19:29.494Z,848.00
2018-12-31T09:20:29.245Z,1108.00
2018-12-31T09:21:29.226Z,1192.00
2018-12-31T09:22:29.209Z,1332.00
2018-12-31T09:23:29.201Z,1660.00
2018-12-31T09:24:29.570Z,2132.00
2018-12-31T09:25:29.581Z,2808.00
2018-12-31T09:26:29.366Z,2596.00
2018-12-31T09:27:29.271Z,2200.00
2018-12-31T09:28:29.211Z,1836.00
2018-12-31T09:29:29.395Z,1724.00
2018-12-31T09:30:29.175Z,1456.00
2018-12-31T09:31:29.195Z,1504.00
2018-12-31T09:32:29.104Z,1584.00
2018-12-31T09:33:29.111Z,1972.00
2018-12-31T09:34:29.950Z,2232.00
2018-12-31T09:35:29.164Z,2164.00
2018-12-31T09:36:29.067Z,2160.00
2018-12-31T09:37:29.612Z,2208.00
2018-12-31T09:38:29.039Z,2076.00
2018-12-31T09:39:29.259Z,1912.00
2018-12-31T09:40:29.074Z,1760.00
2018-12-31T09:41:29.113Z,1504.00
2018-12-31T09:42:30.120Z,1228.00
2018-12-31T09:43:29.163Z,1012.00
2018-12-31T09:44:29.491Z,952.00
2018-12-31T09:45:30.050Z,928.00
2018-12-31T09:46:29.252Z,992.00
2018-12-31T09:47:28.962Z,1016.00
2018-12-31T09:48:29.022Z,1044.00
2018-12-31T09:49:29.518Z,1152.00
2018-12-31T09:50:29.306Z,1232.00
2018-12-31T09:51:29.531Z,1320.00
2018-12-31T09:52:29.072Z,1416.00
2018-12-31T09:53:29.909Z,1420.00
2018-12-31T09:54:29.139Z,1300.00
2018-12-31T09:55:29.427Z,1264.00
2018-12-31T09:56:29.001Z,1396.00
2018-12-31T09:57:29.159Z,1468.00
2018-12-31T09:58:29.240Z,1536.00
2018-12-31T09:59:29.043Z,1636.00
2018-12-31T10:00:28.835Z,1836.00
2018-12-31T10:01:29.291Z,1984.00
2018-12-31T10:02:28.777Z,1772.00
2018-12-31T10:03:28.805Z,1700.00
2018-12-31T10:04:28.760Z,1832.00
2018-12-31T10:05:29.406Z,1920.00
2018-12-31T10:06:28.984Z,1976.00
2018-12-31T10:07:30.306Z,1932.00
2018-12-31T10:08:29.218Z,1964.00
2018-12-31T10:09:28.795Z,2008.00
2018-12-31T10:10:28.803Z,1980.00
2018-12-31T10:11:28.909Z,1976.00
2018-12-31T10:12:29.235Z,1840.00
2018-12-31T10:13:29.105Z,1744.00
2018-12-31T10:14:28.693Z,1716.00
2018-12-31T10:15:29.905Z,1632.00
2018-12-31T10:16:30.487Z,1668.00
2018-12-31T10:17:28.740Z,1968.00
2018-12-31T10:18:28.614Z,2220.00
2018-12-31T10:19:29.108Z,2236.00
2018-12-31T10:20:28.933Z,2224.00
2018-12-31T10:21:28.793Z,2224.00
2018-12-31T10:22:28.722Z,2344.00
2018-12-31T10:23:28.632Z,1976.00
2018-12-31T10:24:28.630Z,1980.00
2018-12-31T10:25:29.075Z,2012.00
2018-12-31T10:26:29.109Z,1660.00
2018-12-31T10:27:28.600Z,1544.00
2018-12-31T10:28:29.081Z,1508.00
2018-12-31T10:29:35.776Z,1356.00
2018-12-31T10:30:29.821Z,1220.00
2018-12-31T10:31:29.039Z,1316.00
2018-12-31T10:32:28.778Z,1712.00
2018-12-31T10:33:29.014Z,2220.00
2018-12-31T10:34:29.749Z,2772.00
2018-12-31T10:35:29.523Z,3032.00
2018-12-31T10:36:28.504Z,3108.00
2018-12-31T10:37:28.753Z,2764.00
2018-12-31T10:38:28.502Z,2148.00
2018-12-31T10:39:28.677Z,1812.00
2018-12-31T10:40:28.733Z,1572.00
2018-12-31T10:41:28.431Z,1424.00
2018-12-31T10:42:28.458Z,1148.00
2018-12-31T10:43:28.633Z,1088.00
2018-12-31T10:44:28.516Z,1340.00
2018-12-31T10:45:28.365Z,1476.00
2018-12-31T10:46:28.386Z,1416.00
2018-12-31T10:47:29.402Z,1492.00
2018-12-31T10:48:28.581Z,1416.00
2018-12-31T10:49:28.446Z,1516.00
2018-12-31T10:50:28.269Z,1972.00
2018-12-31T10:51:28.744Z,2680.00
2018-12-31T10:52:28.398Z,3096.00
2018-12-31T10:53:28.317Z,2532.00
2018-12-31T10:54:28.591Z,1984.00
2018-12-31T10:55:28.547Z,1516.00
2018-12-31T10:56:28.338Z,1132.00
2018-12-31T10:57:28.297Z,1212.00
2018-12-31T10:58:28.227Z,1152.00
2018-12-31T10:59:28.261Z,1208.00
2018-12-31T11:00:28.375Z,1156.00
2018-12-31T11:01:28.565Z,1320.00
2018-12-31T11:02:28.317Z,1524.00
2018-12-31T11:03:28.899Z,1540.00
2018-12-31T11:04:28.153Z,1472.00
2018-12-31T11:05:30.936Z,1404.00
2018-12-31T11:06:28.347Z,1236.00
2018-12-31T11:07:28.850Z,1196.00
2018-12-31T11:08:28.096Z,1256.00
2018-12-31T11:09:31.116Z,1228.00
2018-12-31T11:10:29.129Z,1252.00
2018-12-31T11:11:28.166Z,1216.00
2018-12-31T11:12:29.228Z,1188.00
2018-12-31T11:13:29.397Z,1212.00
2018-12-31T11:14:31.331Z,1424.00
2018-12-31T11:15:27.983Z,1436.00
2018-12-31T11:16:31.159Z,1260.00
2018-12-31T11:17:28.899Z,1392.00
2018-12-31T11:18:28.118Z,1524.00
2018-12-31T11:19:28.744Z,1392.00
2018-12-31T11:20:27.983Z,1220.00
2018-12-31T11:21:28.370Z,1152.00
2018-12-31T11:22:27.998Z,1100.00
2018-12-31T11:23:28.084Z,1068.00
2018-12-31T11:24:28.070Z,976.00
2018-12-31T11:25:28.397Z,948.00
2018-12-31T11:26:27.962Z,964.00
2018-12-31T11:27:28.505Z,944.00
2018-12-31T11:28:28.693Z,1072.00
2018-12-31T11:29:27.947Z,1312.00
2018-12-31T11:30:27.909Z,1396.00
2018-12-31T11:31:30.396Z,1420.00
2018-12-31T11:32:28.096Z,1360.00
2018-12-31T11:33:27.823Z,1212.00
2018-12-31T11:34:28.896Z,1116.00
2018-12-31T11:35:28.428Z,1076.00
2018-12-31T11:36:27.959Z,1104.00
2018-12-31T11:37:34.607Z,972.00
2018-12-31T11:38:28.739Z,888.00
2018-12-31T11:39:27.836Z,892.00
2018-12-31T11:40:28.396Z,972.00
2018-12-31T11:41:28.110Z,1004.00
2018-12-31T11:42:28.898Z,992.00
2018-12-31T11:43:28.227Z,992.00
2018-12-31T11:44:27.694Z,1056.00
2018-12-31T11:45:27.780Z,1216.00
2018-12-31T11:46:27.935Z,1320.00
2018-12-31T11:47:27.687Z,1388.00
2018-12-31T11:48:27.716Z,1328.00
2018-12-31T11:49:28.223Z,1264.00
2018-12-31T11:50:27.726Z,1372.00
2018-12-31T11:51:27.780Z,1620.00
2018-12-31T11:52:27.794Z,1696.00
2018-12-31T11:53:27.696Z,1524.00
2018-12-31T11:54:27.603Z,1480.00
2018-12-31T11:55:27.940Z,1548.00
2018-12-31T11:56:27.965Z,1584.00
2018-12-31T11:57:27.665Z,1544.00
2018-12-31T11:58:27.684Z,1496.00
2018-12-31T11:59:27.571Z,1432.00
2018-12-31T12:00:27.692Z,1412.00
2018-12-31T12:01:28.890Z,1412.00
2018-12-31T12:02:28.165Z,1396.00
2018-12-31T12:03:29.392Z,1384.00
2018-12-31T12:04:28.544Z,1340.00
2018-12-31T12:05:27.480Z,1200.00
2018-12-31T12:06:27.469Z,1144.00
2018-12-31T12:07:27.879Z,1124.00
2018-12-31T12:08:27.545Z,1088.00
2018-12-31T12:09:27.472Z,1064.00
2018-12-31T12:10:28.892Z,1060.00
2018-12-31T12:11:27.411Z,1004.00
2018-12-31T12:12:27.384Z,968.00
2018-12-31T12:13:27.609Z,808.00
2018-12-31T12:14:27.533Z,764.00
2018-12-31T12:15:27.483Z,856.00
2018-12-31T12:16:27.325Z,896.00
2018-12-31T12:17:27.665Z,952.00
2018-12-31T12:18:27.307Z,1008.00
2018-12-31T12:19:27.331Z,1092.00
2018-12-31T12:20:27.285Z,1144.00
2018-12-31T12:21:27.496Z,1252.00
2018-12-31T12:22:27.873Z,1412.00
2018-12-31T12:23:27.364Z,1512.00
2018-12-31T12:24:27.790Z,1540.00
2018-12-31T12:25:27.430Z,1580.00
2018-12-31T12:26:27.300Z,1476.00
2018-12-31T12:27:27.429Z,1492.00
2018-12-31T12:28:27.327Z,1536.00
2018-12-31T12:29:27.275Z,1484.00
2018-12-31T12:30:27.312Z,1372.00
2018-12-31T12:31:27.502Z,1388.00
2018-12-31T12:32:27.200Z,1372.00
2018-12-31T12:33:27.346Z,1352.00
2018-12-31T12:34:27.183Z,1372.00
2018-12-31T12:35:27.368Z,1368.00
2018-12-31T12:36:27.145Z,1248.00
2018-12-31T12:37:27.629Z,1248.00
2018-12-31T12:38:49.482Z,1220.00